Pemberton, Ohio
Current Conditions -  °F | °C
As of 5:30 AM on Thursday 29 Jan 2015 (Local Time) from KEDJ Reporting Station
Broken Clouds Broken Clouds  
Wind Chill: 17°   Ceiling: 6500
Heat Index: 30°   Visibility: 10mi
Dew Point: 19°   Wind: 23mph
Humidity: 64%   Direction: 160°SSE
Pressure: 29.89"   Gusts: 39mph
Location:  40.29°N, 84.03°W
Report Text: KEDJ 291030Z AUTO 16020G34KT 10SM BKN065 M01/M07 A2989 RMK AO1
Loading
Personal Weather Stations






























Interactive Weather Map New forecast layout! Learn more

10-Day Weather Forecast

Advertisements
Track Severe Weather on mobile